Time;durP1;ratioP1;P1;durP2;ratioP2;P2;SDS_P1;SDS_P2;PMS_P1;PMS_P2;Temp;Humidity;BMP_temperature;BMP_pressure;BME280_temperature;BME280_humidity;BME280_pressure;Samples;Min_cycle;Max_cycle;Signal;HPM_P1;HPM_P2
2023/09/17 00:01:51;;;;;;;8.87;7.27;;;;;16.60;97019.00;;;;5030889;28;20674;-85
2023/09/17 00:04:40;;;;;;;10.90;7.77;;;;;16.50;97015.00;;;;5028544;28;20225;-87
2023/09/17 00:07:31;;;;;;;8.63;7.90;;;;;16.70;97012.00;;;;5028622;28;20232;-87
2023/09/17 00:10:20;;;;;;;7.83;7.07;;;;;16.40;97012.00;;;;5030655;28;20205;-85
2023/09/17 00:13:09;;;;;;;10.80;8.00;;;;;16.20;97011.00;;;;5026467;28;20682;-85
2023/09/17 00:15:58;;;;;;;8.73;7.80;;;;;16.10;97006.00;;;;5030522;28;20201;-86
2023/09/17 00:18:48;;;;;;;7.67;6.77;;;;;16.30;97006.00;;;;5031301;28;20205;-87
2023/09/17 00:21:36;;;;;;;9.30;8.30;;;;;16.10;96990.00;;;;5029835;28;20220;-85
2023/09/17 00:24:27;;;;;;;8.30;7.57;;;;;16.20;97003.00;;;;5029240;28;20221;-87
2023/09/17 00:27:16;;;;;;;8.63;7.73;;;;;16.10;96996.00;;;;5030500;28;20209;-86
2023/09/17 00:30:07;;;;;;;7.57;6.90;;;;;16.10;96997.00;;;;5026463;28;20212;-86
2023/09/17 00:32:56;;;;;;;10.10;8.87;;;;;16.10;96988.00;;;;5024557;28;20809;-85
2023/09/17 00:35:45;;;;;;;12.17;8.80;;;;;16.20;96993.00;;;;5031933;28;20225;-87
2023/09/17 00:38:34;;;;;;;8.03;7.23;;;;;16.40;96985.00;;;;5036635;28;20205;-88
2023/09/17 00:41:25;;;;;;;8.30;7.43;;;;;16.60;96981.00;;;;5036365;28;20216;-88
2023/09/17 00:44:15;;;;;;;11.13;8.20;;;;;16.70;96986.00;;;;5030456;28;20221;-87
2023/09/17 00:47:06;;;;;;;9.27;8.47;;;;;16.60;96996.00;;;;5033267;28;20221;-88
2023/09/17 00:49:55;;;;;;;9.73;8.73;;;;;16.70;96990.00;;;;5034090;28;20209;-87
2023/09/17 00:52:44;;;;;;;13.20;7.27;;;;;16.60;96988.00;;;;5033686;28;20205;-87
2023/09/17 00:55:33;;;;;;;8.17;7.37;;;;;16.40;96998.00;;;;5031350;28;20221;-87
2023/09/17 00:58:24;;;;;;;7.37;6.70;;;;;16.30;96985.00;;;;5032467;28;20209;-87
2023/09/17 01:01:13;;;;;;;8.47;7.30;;;;;16.30;96973.00;;;;5032687;28;20212;-87
2023/09/17 01:04:03;;;;;;;11.67;7.57;;;;;16.10;96971.00;;;;5026475;28;20284;-86
2023/09/17 01:06:55;;;;;;;8.83;7.97;;;;;16.10;96970.00;;;;5031690;28;20701;-87
2023/09/17 01:09:44;;;;;;;8.63;7.83;;;;;16.00;96975.00;;;;5032393;28;20213;-88
2023/09/17 01:12:33;;;;;;;8.97;6.90;;;;;16.30;96966.00;;;;5032577;28;20205;-87
2023/09/17 01:15:27;;;;;;;8.23;7.43;;;;;16.10;96959.00;;;;5031899;28;20221;-88
2023/09/17 01:18:18;;;;;;;8.97;8.17;;;;;15.60;96953.00;;;;5028591;28;20201;-88
2023/09/17 01:21:13;;;;;;;12.10;7.03;;;;;15.40;96954.00;;;;5025918;28;20213;-86
2023/09/17 01:24:13;;;;;;;11.63;7.73;;;;;14.80;96951.00;;;;5032600;28;20236;-88
2023/09/17 01:27:04;;;;;;;8.40;7.70;;;;;15.10;96942.00;;;;5029572;28;20229;-86
2023/09/17 01:29:54;;;;;;;11.03;8.73;;;;;15.00;96948.00;;;;5024522;28;20209;-87
2023/09/17 01:32:43;;;;;;;8.60;7.73;;;;;15.20;96944.00;;;;5030080;28;20221;-86
2023/09/17 01:35:34;;;;;;;9.40;8.40;;;;;15.30;96949.00;;;;5029630;28;20221;-87
2023/09/17 01:38:24;;;;;;;8.73;7.80;;;;;15.80;96952.00;;;;5031155;28;20220;-88
2023/09/17 01:41:15;;;;;;;10.93;8.60;;;;;15.80;96952.00;;;;5026397;28;20209;-85
2023/09/17 01:44:06;;;;;;;14.20;8.50;;;;;15.50;96960.00;;;;5030450;28;20233;-88
2023/09/17 01:46:56;;;;;;;12.90;8.03;;;;;15.40;96954.00;;;;5032652;28;20225;-86
2023/09/17 01:49:46;;;;;;;11.47;8.33;;;;;15.80;96956.00;;;;5031830;28;20208;-88
2023/09/17 01:52:36;;;;;;;9.37;8.47;;;;;16.10;96948.00;;;;5029093;28;20336;-88
2023/09/17 01:55:26;;;;;;;10.97;9.90;;;;;15.90;96947.00;;;;5026937;28;20690;-85
2023/09/17 01:58:16;;;;;;;10.40;9.40;;;;;15.90;96954.00;;;;5025952;28;20218;-88
2023/09/17 02:01:07;;;;;;;13.83;8.43;;;;;15.80;96944.00;;;;5027010;28;20215;-85
2023/09/17 02:03:57;;;;;;;10.90;8.70;;;;;16.20;96952.00;;;;5023520;28;20236;-86
2023/09/17 02:06:47;;;;;;;10.30;8.57;;;;;16.10;96948.00;;;;5030868;28;20304;-85
2023/09/17 02:09:36;;;;;;;9.03;8.23;;;;;16.00;96956.00;;;;5029171;28;20712;-86
2023/09/17 02:12:25;;;;;;;8.37;7.53;;;;;15.80;96942.00;;;;5028242;28;20216;-85
2023/09/17 02:15:14;;;;;;;8.93;8.07;;;;;15.80;96947.00;;;;5025069;28;20225;-85
2023/09/17 02:18:05;;;;;;;10.17;7.17;;;;;15.70;96950.00;;;;5024619;28;20701;-88
2023/09/17 02:20:54;;;;;;;7.53;6.83;;;;;15.60;96958.00;;;;5021320;28;20202;-86
2023/09/17 02:23:44;;;;;;;8.53;7.70;;;;;15.10;96953.00;;;;5028646;28;20200;-85
2023/09/17 02:26:33;;;;;;;8.50;6.97;;;;;15.00;96955.00;;;;5028300;28;20225;-86
2023/09/17 02:29:22;;;;;;;8.90;8.03;;;;;14.90;96951.00;;;;5028889;28;20216;-87
2023/09/17 02:32:11;;;;;;;8.57;7.77;;;;;14.90;96953.00;;;;5026713;28;20221;-87
2023/09/17 02:35:02;;;;;;;10.67;7.67;;;;;15.10;96946.00;;;;5022728;28;20233;-86
2023/09/17 02:37:51;;;;;;;9.97;8.33;;;;;15.50;96956.00;;;;5029851;28;20197;-86
2023/09/17 02:40:40;;;;;;;10.73;8.80;;;;;15.60;96948.00;;;;5028789;28;20209;-86
2023/09/17 02:43:29;;;;;;;9.70;8.80;;;;;15.70;96946.00;;;;5028237;28;20603;-86
2023/09/17 02:46:19;;;;;;;10.07;8.97;;;;;15.80;96945.00;;;;5028158;28;20583;-88
2023/09/17 02:49:08;;;;;;;11.13;8.67;;;;;15.90;96952.00;;;;5022971;28;20636;-85
2023/09/17 02:51:59;;;;;;;11.67;9.07;;;;;15.90;96951.00;;;;5021321;28;20224;-87
2023/09/17 02:54:48;;;;;;;9.17;8.40;;;;;15.40;96954.00;;;;5027039;28;20720;-86
2023/09/17 02:57:37;;;;;;;9.57;8.67;;;;;15.10;96939.00;;;;5027279;28;20205;-85
2023/09/17 03:00:26;;;;;;;13.40;7.43;;;;;14.90;96945.00;;;;5027544;28;20205;-85
2023/09/17 03:03:15;;;;;;;11.43;6.43;;;;;14.70;96945.00;;;;5023540;28;20209;-84
2023/09/17 03:06:05;;;;;;;12.47;8.10;;;;;14.70;96938.00;;;;5028280;28;20260;-87
2023/09/17 03:08:57;;;;;;;9.00;7.60;;;;;14.70;96940.00;;;;5024148;28;20569;-86
2023/09/17 03:11:46;;;;;;;8.33;7.50;;;;;14.50;96927.00;;;;5030536;28;20222;-88
2023/09/17 03:14:35;;;;;;;8.60;7.73;;;;;14.50;96923.00;;;;5027092;28;20236;-85
2023/09/17 03:17:24;;;;;;;10.23;7.63;;;;;14.70;96936.00;;;;5028719;28;20575;-85
2023/09/17 03:20:18;;;;;;;9.67;8.43;;;;;14.80;96924.00;;;;5023945;28;20276;-84
2023/09/17 03:23:07;;;;;;;10.93;8.93;;;;;14.90;96926.00;;;;5022718;28;20197;-86
2023/09/17 03:25:57;;;;;;;9.87;8.87;;;;;15.30;96935.00;;;;5019647;28;20202;-85
2023/09/17 03:28:46;;;;;;;13.33;8.73;;;;;14.70;96928.00;;;;5027121;28;20206;-87
2023/09/17 03:31:36;;;;;;;8.23;7.43;;;;;14.40;96938.00;;;;5029413;28;20290;-86
2023/09/17 03:34:26;;;;;;;9.57;8.57;;;;;14.30;96949.00;;;;5025840;28;20228;-85
2023/09/17 03:37:15;;;;;;;8.43;7.53;;;;;14.40;96948.00;;;;5024908;28;20205;-86
2023/09/17 03:40:10;;;;;;;12.73;8.67;;;;;14.70;96943.00;;;;5023650;28;20212;-85
2023/09/17 03:43:00;;;;;;;8.43;7.53;;;;;15.00;96946.00;;;;5022235;28;20212;-85
2023/09/17 03:45:51;;;;;;;10.63;9.53;;;;;14.90;96953.00;;;;5025945;28;20636;-85
2023/09/17 03:48:40;;;;;;;10.83;9.73;;;;;14.80;96956.00;;;;5026723;28;20201;-85
2023/09/17 03:51:30;;;;;;;9.37;8.47;;;;;15.00;96955.00;;;;5025294;28;20277;-86
2023/09/17 03:54:19;;;;;;;14.23;10.40;;;;;15.40;96953.00;;;;5027087;28;20229;-87
2023/09/17 03:57:08;;;;;;;10.83;9.27;;;;;14.90;96952.00;;;;5033191;28;20216;-88
2023/09/17 03:59:59;;;;;;;10.67;9.53;;;;;14.60;96957.00;;;;5025262;28;20450;-87
2023/09/17 04:02:49;;;;;;;10.37;9.33;;;;;15.20;96955.00;;;;5031184;28;20214;-84
2023/09/17 04:05:38;;;;;;;10.70;9.53;;;;;14.50;96969.00;;;;5031754;28;20239;-87
2023/09/17 04:08:27;;;;;;;13.30;9.53;;;;;14.20;96964.00;;;;5031940;28;20231;-86
2023/09/17 04:11:17;;;;;;;12.27;9.70;;;;;14.60;96957.00;;;;5029599;28;20594;-85
2023/09/17 04:14:07;;;;;;;14.23;9.30;;;;;14.90;96962.00;;;;5028826;28;20228;-85
2023/09/17 04:16:57;;;;;;;9.30;8.40;;;;;14.30;96962.00;;;;5026792;28;20206;-87
2023/09/17 04:19:46;;;;;;;9.80;8.90;;;;;14.30;96964.00;;;;5032249;28;20207;-85
2023/09/17 04:22:35;;;;;;;9.23;8.17;;;;;14.50;96968.00;;;;5032040;28;20227;-87
2023/09/17 04:25:25;;;;;;;10.20;8.50;;;;;14.30;96963.00;;;;5030527;28;20222;-85
2023/09/17 04:28:15;;;;;;;11.97;8.80;;;;;14.30;96968.00;;;;5021596;28;20240;-87
2023/09/17 04:31:04;;;;;;;9.97;8.97;;;;;14.30;96972.00;;;;5026443;28;20201;-85
2023/09/17 04:33:54;;;;;;;10.83;9.70;;;;;14.30;96974.00;;;;5018045;28;20228;-85
2023/09/17 04:36:43;;;;;;;8.53;7.73;;;;;14.10;96976.00;;;;5022850;28;20209;-82
2023/09/17 04:39:32;;;;;;;11.97;10.27;;;;;14.00;96978.00;;;;5030518;28;20220;-87
2023/09/17 04:42:21;;;;;;;10.67;9.10;;;;;14.30;96979.00;;;;5032403;28;20842;-85
2023/09/17 04:45:11;;;;;;;13.13;9.17;;;;;14.00;96981.00;;;;5029971;28;20229;-86
2023/09/17 04:48:01;;;;;;;10.63;9.53;;;;;14.20;96986.00;;;;5027225;28;20248;-87
2023/09/17 04:50:51;;;;;;;10.20;9.13;;;;;14.10;96997.00;;;;5026677;28;20204;-87
2023/09/17 04:53:40;;;;;;;12.07;9.83;;;;;14.40;97000.00;;;;5031008;28;20201;-88
2023/09/17 04:56:29;;;;;;;12.20;10.80;;;;;14.70;97001.00;;;;5033893;28;20583;-87
2023/09/17 04:59:18;;;;;;;11.30;9.80;;;;;14.70;96989.00;;;;5034690;28;20206;-87
2023/09/17 05:02:07;;;;;;;13.33;9.30;;;;;15.00;96999.00;;;;5026960;28;20209;-87
2023/09/17 05:04:56;;;;;;;11.10;9.77;;;;;15.20;96983.00;;;;5028949;28;20240;-88
2023/09/17 05:07:48;;;;;;;14.40;10.63;;;;;15.50;96992.00;;;;5034232;28;20251;-88
2023/09/17 05:10:37;;;;;;;12.60;10.57;;;;;15.40;96996.00;;;;5034269;28;20205;-89
2023/09/17 05:13:26;;;;;;;11.17;10.03;;;;;15.20;96987.00;;;;5035499;28;20252;-88
2023/09/17 05:16:16;;;;;;;10.20;9.20;;;;;15.20;96980.00;;;;5029429;28;20201;-86
2023/09/17 05:19:06;;;;;;;11.17;9.00;;;;;15.30;96991.00;;;;5033897;28;20213;-85
2023/09/17 05:21:55;;;;;;;12.10;9.23;;;;;14.80;96996.00;;;;5023235;28;20934;-86
2023/09/17 05:24:45;;;;;;;11.67;9.27;;;;;14.50;97000.00;;;;5028600;28;20236;-87
2023/09/17 05:27:34;;;;;;;10.53;7.83;;;;;14.60;96998.00;;;;5029622;28;20236;-86
2023/09/17 05:30:23;;;;;;;9.60;8.47;;;;;14.40;97003.00;;;;5028800;28;20220;-87
2023/09/17 05:33:12;;;;;;;8.97;8.07;;;;;14.50;96999.00;;;;5022739;28;20225;-86
2023/09/17 05:36:02;;;;;;;11.87;9.30;;;;;15.00;96999.00;;;;5027690;28;20213;-85
2023/09/17 05:38:51;;;;;;;9.90;9.00;;;;;14.70;96993.00;;;;5022608;28;20200;-87
2023/09/17 05:41:42;;;;;;;16.30;9.60;;;;;14.80;96997.00;;;;5029807;28;20205;-86
2023/09/17 05:44:31;;;;;;;9.90;8.70;;;;;15.00;97002.00;;;;5027873;28;20229;-85
2023/09/17 05:47:20;;;;;;;10.03;9.03;;;;;15.20;96996.00;;;;5030402;28;20212;-85
2023/09/17 05:50:10;;;;;;;11.80;10.13;;;;;15.40;96992.00;;;;5023532;28;20201;-85
2023/09/17 05:52:59;;;;;;;12.63;9.60;;;;;15.40;96992.00;;;;5021740;28;20209;-86
2023/09/17 05:55:48;;;;;;;11.47;10.37;;;;;15.20;96988.00;;;;5028654;28;20239;-85
2023/09/17 05:58:39;;;;;;;9.23;8.30;;;;;15.00;97006.00;;;;5025226;28;20197;-85
2023/09/17 06:01:28;;;;;;;9.47;8.57;;;;;15.50;97016.00;;;;5024350;28;20658;-86
2023/09/17 06:04:17;;;;;;;9.07;7.77;;;;;15.70;97010.00;;;;5025636;28;20221;-86
2023/09/17 06:07:06;;;;;;;11.07;9.70;;;;;15.60;97010.00;;;;5026606;28;20201;-86
2023/09/17 06:09:55;;;;;;;10.27;9.03;;;;;15.90;97007.00;;;;5023566;28;20209;-85
2023/09/17 06:12:44;;;;;;;10.87;9.40;;;;;16.00;97001.00;;;;5025083;28;20198;-86
2023/09/17 06:15:34;;;;;;;15.13;10.17;;;;;16.20;96999.00;;;;5026312;28;20687;-87
2023/09/17 06:18:24;;;;;;;10.40;8.30;;;;;16.40;97005.00;;;;5026543;28;20197;-86
2023/09/17 06:21:13;;;;;;;10.63;9.53;;;;;16.70;97006.00;;;;5021830;28;20216;-86
2023/09/17 06:24:02;;;;;;;10.60;9.40;;;;;16.80;97008.00;;;;5026131;28;20223;-86
2023/09/17 06:26:51;;;;;;;11.57;9.37;;;;;17.00;97001.00;;;;5028067;28;20205;-85
2023/09/17 06:29:40;;;;;;;11.33;9.40;;;;;16.90;97007.00;;;;5029131;28;20267;-86
2023/09/17 06:32:31;;;;;;;9.93;8.57;;;;;16.90;97006.00;;;;5026115;28;20670;-85
2023/09/17 06:35:20;;;;;;;11.83;9.13;;;;;17.00;97011.00;;;;5028247;28;20227;-86
2023/09/17 06:38:11;;;;;;;15.10;9.77;;;;;17.20;97004.00;;;;5024259;28;20205;-85
2023/09/17 06:41:00;;;;;;;10.93;8.93;;;;;17.60;97009.00;;;;5021139;28;20292;-87
2023/09/17 06:43:49;;;;;;;9.93;8.10;;;;;17.70;97000.00;;;;5028501;28;20702;-85
2023/09/17 06:46:41;;;;;;;11.00;9.57;;;;;17.90;96998.00;;;;5021599;28;20705;-86
2023/09/17 06:49:31;;;;;;;13.67;10.30;;;;;18.00;97002.00;;;;5020070;28;20217;-85
2023/09/17 06:52:23;;;;;;;11.13;9.87;;;;;18.20;96996.00;;;;5024014;28;20201;-86
2023/09/17 06:55:14;;;;;;;12.87;10.87;;;;;18.50;97015.00;;;;5026090;28;20232;-85
2023/09/17 06:58:03;;;;;;;11.13;10.03;;;;;18.70;97017.00;;;;5024829;28;20213;-85
2023/09/17 07:00:55;;;;;;;13.50;11.27;;;;;18.60;97019.00;;;;5028110;28;20748;-85
2023/09/17 07:03:44;;;;;;;14.47;11.23;;;;;19.00;97017.00;;;;5023975;28;20214;-86
2023/09/17 07:06:35;;;;;;;15.27;11.20;;;;;19.60;97022.00;;;;5030586;28;20193;-86
2023/09/17 07:09:24;;;;;;;11.40;9.80;;;;;19.90;97030.00;;;;5030201;28;20225;-86
2023/09/17 07:12:13;;;;;;;11.10;10.00;;;;;19.50;97019.00;;;;5027485;28;20679;-86
2023/09/17 07:15:02;;;;;;;11.13;9.87;;;;;19.50;97028.00;;;;5029279;28;20240;-85
2023/09/17 07:17:52;;;;;;;11.07;9.87;;;;;19.60;97033.00;;;;5027950;28;20205;-87
2023/09/17 07:20:41;;;;;;;14.53;9.40;;;;;20.10;97034.00;;;;5024505;28;20197;-87
2023/09/17 07:23:32;;;;;;;13.40;10.70;;;;;20.60;97030.00;;;;5024922;28;20206;-87
2023/09/17 07:26:21;;;;;;;11.90;9.97;;;;;21.00;97035.00;;;;5022892;28;20200;-87
2023/09/17 07:29:11;;;;;;;11.53;9.03;;;;;21.00;97033.00;;;;5023858;28;20236;-85
2023/09/17 07:32:00;;;;;;;11.10;8.10;;;;;21.30;97029.00;;;;5026117;28;20208;-86
2023/09/17 07:34:50;;;;;;;9.90;8.57;;;;;21.90;97033.00;;;;5028401;28;20225;-85
2023/09/17 07:37:40;;;;;;;10.40;8.77;;;;;21.90;97029.00;;;;5027504;28;20625;-84
2023/09/17 07:40:39;;;;;;;9.27;7.80;;;;;22.30;97042.00;;;;5029852;28;20194;-87
2023/09/17 07:43:28;;;;;;;10.70;8.40;;;;;22.50;97027.00;;;;5030116;28;20201;-86
2023/09/17 07:46:17;;;;;;;9.83;7.30;;;;;22.60;97031.00;;;;5028805;28;20201;-85
2023/09/17 07:49:06;;;;;;;10.07;7.57;;;;;22.70;97038.00;;;;5025494;28;20217;-84
2023/09/17 07:51:55;;;;;;;11.67;8.53;;;;;22.80;97034.00;;;;5022698;28;20670;-85
2023/09/17 07:54:44;;;;;;;9.20;7.17;;;;;23.00;97038.00;;;;5027042;28;20705;-86
2023/09/17 07:57:35;;;;;;;10.10;9.10;;;;;23.00;97031.00;;;;5024844;28;20205;-88
2023/09/17 08:00:25;;;;;;;8.20;7.40;;;;;23.20;97044.00;;;;5025294;28;20739;-85
2023/09/17 08:03:15;;;;;;;8.73;7.03;;;;;23.40;97051.00;;;;5025939;28;20209;-85
2023/09/17 08:06:05;;;;;;;8.10;6.30;;;;;23.40;97047.00;;;;5024258;28;20205;-87
2023/09/17 08:08:54;;;;;;;7.20;6.47;;;;;23.40;97053.00;;;;5029631;28;20237;-85
2023/09/17 08:11:43;;;;;;;7.17;6.47;;;;;23.70;97056.00;;;;5029819;28;20206;-87
2023/09/17 08:14:35;;;;;;;7.73;6.47;;;;;24.00;97048.00;;;;5030243;28;20221;-87
2023/09/17 08:17:24;;;;;;;8.07;7.33;;;;;24.00;97057.00;;;;5027124;28;20202;-85
2023/09/17 08:20:13;;;;;;;7.37;6.13;;;;;24.10;97063.00;;;;5028906;28;20197;-87
2023/09/17 08:23:03;;;;;;;7.33;6.63;;;;;24.20;97057.00;;;;5028401;28;20198;-86
2023/09/17 08:25:52;;;;;;;7.67;6.30;;;;;24.30;97052.00;;;;5029197;28;20240;-86
2023/09/17 08:28:42;;;;;;;7.23;6.57;;;;;24.60;97061.00;;;;5027232;28;20197;-85
2023/09/17 08:31:32;;;;;;;8.03;7.23;;;;;24.60;97057.00;;;;5028520;28;20209;-86
2023/09/17 08:34:21;;;;;;;7.53;6.73;;;;;24.60;97059.00;;;;5025501;28;20582;-87
2023/09/17 08:37:10;;;;;;;6.83;6.13;;;;;24.90;97058.00;;;;5029483;28;20573;-85
2023/09/17 08:39:59;;;;;;;8.07;7.20;;;;;25.20;97053.00;;;;5030009;28;20746;-85
2023/09/17 08:42:50;;;;;;;7.33;6.63;;;;;25.30;97055.00;;;;5028234;28;20205;-86
2023/09/17 08:45:41;;;;;;;7.03;6.37;;;;;25.00;97070.00;;;;5027024;28;20236;-88
2023/09/17 08:48:32;;;;;;;8.53;6.33;;;;;25.30;97058.00;;;;5028800;28;20202;-84
2023/09/17 08:51:23;;;;;;;6.73;6.13;;;;;25.50;97058.00;;;;5024899;28;20587;-86
2023/09/17 08:54:16;;;;;;;7.07;6.40;;;;;25.40;97065.00;;;;5027077;28;20228;-86
2023/09/17 08:57:06;;;;;;;9.03;6.70;;;;;25.60;97067.00;;;;5029618;28;20206;-85
2023/09/17 09:00:02;;;;;;;7.77;7.07;;;;;25.80;97064.00;;;;5026772;28;20586;-86
2023/09/17 09:02:55;;;;;;;9.73;7.50;;;;;25.90;97067.00;;;;5026427;28;20209;-85
2023/09/17 09:05:46;;;;;;;7.63;6.57;;;;;25.90;97058.00;;;;5028832;28;20221;-85
2023/09/17 09:08:36;;;;;;;7.80;6.10;;;;;25.70;97063.00;;;;5027888;28;20205;-85
2023/09/17 09:11:25;;;;;;;6.10;5.50;;;;;26.10;97058.00;;;;5030914;28;20213;-87
2023/09/17 09:14:15;;;;;;;6.83;6.13;;;;;26.20;97056.00;;;;5031075;28;20718;-88
2023/09/17 09:17:04;;;;;;;6.67;5.97;;;;;26.30;97055.00;;;;5029212;28;20212;-87
2023/09/17 09:19:55;;;;;;;6.67;5.80;;;;;26.60;97046.00;;;;5029907;28;20205;-87
2023/09/17 09:22:45;;;;;;;6.73;6.07;;;;;26.70;97048.00;;;;5028282;28;20205;-86
2023/09/17 09:25:35;;;;;;;6.40;5.80;;;;;26.80;97048.00;;;;5029122;28;20233;-86
2023/09/17 09:28:24;;;;;;;6.50;5.43;;;;;27.10;97060.00;;;;5030836;28;20590;-85
2023/09/17 09:31:13;;;;;;;6.90;5.93;;;;;27.40;97042.00;;;;5031565;28;20225;-86
2023/09/17 09:34:03;;;;;;;6.77;5.60;;;;;27.60;97041.00;;;;5030997;28;20246;-85
2023/09/17 09:36:52;;;;;;;6.03;5.43;;;;;27.80;97035.00;;;;5031289;28;20210;-85
2023/09/17 09:39:44;;;;;;;5.67;5.17;;;;;27.90;97045.00;;;;5029808;28;20209;-85
2023/09/17 09:42:33;;;;;;;6.00;5.33;;;;;27.90;97047.00;;;;5025254;28;20194;-86
2023/09/17 09:45:22;;;;;;;5.80;5.20;;;;;28.30;97042.00;;;;5028013;28;20226;-86
2023/09/17 09:48:14;;;;;;;6.33;5.83;;;;;28.50;97044.00;;;;5028670;28;20203;-86
2023/09/17 09:51:04;;;;;;;6.20;5.60;;;;;28.70;97048.00;;;;5025497;28;20639;-85
2023/09/17 09:53:55;;;;;;;5.60;5.07;;;;;28.60;97045.00;;;;5026225;28;20232;-85
2023/09/17 09:56:47;;;;;;;6.97;6.27;;;;;28.70;97053.00;;;;5027521;28;20989;-85
2023/09/17 09:59:36;;;;;;;5.43;4.87;;;;;27.60;97055.00;;;;5026694;28;20211;-87
2023/09/17 10:02:26;;;;;;;6.97;5.37;;;;;28.40;97058.00;;;;5027289;28;20208;-85
2023/09/17 10:05:18;;;;;;;5.83;5.27;;;;;29.20;97058.00;;;;5023638;28;20227;-85
2023/09/17 10:08:09;;;;;;;6.27;5.23;;;;;29.00;97063.00;;;;5025948;28;20213;-86
2023/09/17 10:10:58;;;;;;;6.20;5.43;;;;;29.40;97060.00;;;;5024240;28;20226;-86
2023/09/17 10:13:48;;;;;;;4.60;4.13;;;;;29.70;97051.00;;;;5021254;28;20207;-85
2023/09/17 10:16:38;;;;;;;5.47;4.97;;;;;29.70;97054.00;;;;5027307;28;20199;-86
2023/09/17 10:19:29;;;;;;;5.20;4.77;;;;;29.00;97051.00;;;;5028819;28;20219;-85
2023/09/17 10:22:20;;;;;;;5.47;4.93;;;;;28.80;97049.00;;;;5028187;28;20214;-85
2023/09/17 10:28:16;;;;;;;5.53;4.90;;;;;30.00;97035.00;;;;5023508;28;20210;-86
2023/09/17 10:31:08;;;;;;;7.20;5.30;;;;;29.40;97039.00;;;;5022539;28;20232;-85
2023/09/17 10:33:59;;;;;;;5.50;5.10;;;;;29.30;97026.00;;;;5017340;28;20228;-87
2023/09/17 10:36:49;;;;;;;5.73;4.83;;;;;30.10;97036.00;;;;5027052;28;20211;-87
2023/09/17 10:39:38;;;;;;;4.40;4.00;;;;;30.50;97034.00;;;;5020362;28;20201;-86
2023/09/17 10:42:29;;;;;;;5.53;4.80;;;;;30.70;97026.00;;;;5021142;28;20216;-87
2023/09/17 10:45:18;;;;;;;4.67;4.27;;;;;31.20;97030.00;;;;5029135;28;20226;-87
2023/09/17 10:48:10;;;;;;;5.60;4.40;;;;;31.10;97025.00;;;;5017662;28;20692;-86
2023/09/17 10:51:00;;;;;;;5.30;4.80;;;;;31.50;97025.00;;;;5020481;28;20607;-87
2023/09/17 10:53:49;;;;;;;4.03;3.67;;;;;31.20;97021.00;;;;5027640;28;20197;-86
2023/09/17 10:56:41;;;;;;;4.95;4.45;;;;;31.70;97021.00;;;;5027475;28;20276;-86
2023/09/17 10:59:30;;;;;;;4.18;3.80;;;;;32.60;97025.00;;;;5022878;28;20670;-86
2023/09/17 11:02:20;;;;;;;5.43;4.93;;;;;32.70;97016.00;;;;5025540;28;20196;-86
2023/09/17 11:05:11;;;;;;;5.13;4.65;;;;;32.80;97020.00;;;;5012565;28;20695;-86
2023/09/17 11:08:04;;;;;;;5.18;4.07;;;;;32.90;97020.00;;;;5020692;28;20212;-86
2023/09/17 11:10:54;;;;;;;4.30;3.90;;;;;33.30;97024.00;;;;5032636;28;20226;-86
2023/09/17 11:13:46;;;;;;;4.57;4.18;;;;;33.20;97014.00;;;;5027942;28;20206;-86
2023/09/17 11:16:35;;;;;;;5.05;4.63;;;;;33.60;97014.00;;;;5021303;28;20741;-88
2023/09/17 11:19:25;;;;;;;4.30;3.90;;;;;33.20;97016.00;;;;5020622;28;20212;-87
2023/09/17 11:22:15;;;;;;;5.53;4.82;;;;;33.40;97015.00;;;;5026255;28;20211;-87
2023/09/17 11:25:05;;;;;;;5.47;5.00;;;;;33.50;97023.00;;;;5028586;28;20224;-86
2023/09/17 11:27:54;;;;;;;7.13;4.78;;;;;33.90;97024.00;;;;5026204;28;20216;-85
2023/09/17 11:31:02;;;;;;;6.15;4.25;;;;;34.60;97030.00;;;;5026486;28;20828;-87
2023/09/17 11:33:51;;;;;;;4.85;4.45;;;;;35.00;97028.00;;;;5026041;28;20221;-86
2023/09/17 11:36:42;;;;;;;4.72;4.30;;;;;35.10;97025.00;;;;5027452;28;20197;-88
2023/09/17 11:39:35;;;;;;;5.85;4.45;;;;;34.70;97023.00;;;;5024560;28;20281;-86
2023/09/17 11:42:26;;;;;;;5.70;5.18;;;;;35.30;97024.00;;;;5026232;28;20204;-87
2023/09/17 11:45:15;;;;;;;6.20;4.83;;;;;35.30;97034.00;;;;5023903;28;20225;-86
2023/09/17 11:48:08;;;;;;;5.65;4.93;;;;;35.90;97017.00;;;;5017456;28;20197;-86
2023/09/17 11:51:21;;;;;;;4.45;4.03;;;;;35.30;97025.00;;;;5018243;28;20229;-87
2023/09/17 11:54:15;;;;;;;5.40;4.90;;;;;35.40;97023.00;;;;5024540;28;20221;-86
2023/09/17 11:57:05;;;;;;;4.90;4.53;;;;;35.30;97021.00;;;;5024549;28;20197;-86
2023/09/17 11:59:55;;;;;;;9.35;4.70;;;;;35.40;97026.00;;;;5026751;28;20228;-87
2023/09/17 12:02:44;;;;;;;4.63;4.22;;;;;35.50;97025.00;;;;5022665;28;20585;-84
2023/09/17 12:05:34;;;;;;;4.00;3.70;;;;;36.00;97016.00;;;;5022229;28;20718;-86
2023/09/17 12:08:24;;;;;;;3.72;3.42;;;;;35.30;97017.00;;;;5024526;28;20201;-85
2023/09/17 12:11:21;;;;;;;4.65;4.25;;;;;35.90;97018.00;;;;5025030;28;20218;-86
2023/09/17 12:14:12;;;;;;;4.05;3.75;;;;;36.60;97012.00;;;;5023048;28;20229;-87
2023/09/17 12:17:02;;;;;;;4.88;4.38;;;;;36.80;97015.00;;;;5026670;28;20207;-85
2023/09/17 12:19:59;;;;;;;4.35;3.95;;;;;36.70;97013.00;;;;5028173;28;20229;-87
2023/09/17 12:22:56;;;;;;;5.30;4.85;;;;;36.70;97011.00;;;;5025449;28;20233;-87
2023/09/17 12:25:45;;;;;;;4.22;3.83;;;33.60;81.30;36.90;97010.00;;;;5024721;28;20235;-86
2023/09/17 12:28:34;;;;;;;4.57;4.15;;;33.60;80.40;37.20;97001.00;;;;5025599;28;20564;-86
2023/09/17 12:31:24;;;;;;;4.85;4.45;;;33.70;77.60;37.10;96999.00;;;;5025168;28;20229;-87
2023/09/17 12:34:13;;;;;;;3.97;3.67;;;33.70;78.80;36.80;97007.00;;;;5029787;28;20221;-86
2023/09/17 12:37:03;;;;;;;4.50;4.10;;;33.80;77.60;34.70;96996.00;;;;5023153;28;20205;-88
2023/09/17 12:39:53;;;;;;;4.50;4.10;;;33.50;75.10;35.50;96992.00;;;;5033370;28;20597;-89
2023/09/17 12:42:42;;;;;;;5.03;4.15;;;33.30;78.80;35.00;96997.00;;;;5024825;28;20205;-86
2023/09/17 12:45:30;;;;;;;3.80;3.50;;;33.20;76.90;34.40;96983.00;;;;5024476;28;20615;-88
2023/09/17 12:48:22;;;;;;;4.65;4.25;;;33.00;76.50;35.90;96974.00;;;;5023158;28;20198;-86
2023/09/17 12:51:13;;;;;;;4.53;4.13;;;32.90;76.40;37.00;96968.00;;;;5022812;28;20737;-86
2023/09/17 12:54:01;;;;;;;3.38;3.15;;;33.20;76.70;37.70;96962.00;;;;5021884;28;20248;-85
2023/09/17 12:56:52;;;;;;;4.38;3.97;;;33.50;76.80;37.60;96961.00;;;;5019625;28;20216;-86
2023/09/17 12:59:42;;;;;;;13.15;4.53;;;33.80;75.30;38.20;96962.00;;;;5028626;28;20201;-85
2023/09/17 13:02:32;;;;;;;3.78;3.38;;;34.10;75.70;34.70;96954.00;;;;5026402;28;20217;-87
2023/09/17 13:05:22;;;;;;;4.07;3.67;;;33.90;70.70;34.50;96960.00;;;;5023047;28;20319;-87
2023/09/17 13:08:12;;;;;;;3.72;3.42;;;33.40;72.30;33.50;96953.00;;;;5025226;28;20203;-87
2023/09/17 13:11:01;;;;;;;4.28;3.88;;;33.00;72.20;34.40;96969.00;;;;5024666;28;20197;-87
2023/09/17 13:13:51;;;;;;;3.67;3.38;;;32.50;73.60;35.60;96956.00;;;;5017578;28;20229;-86
2023/09/17 13:16:42;;;;;;;3.60;3.30;;;32.60;72.60;35.40;96960.00;;;;5019579;28;21040;-86
2023/09/17 13:19:31;;;;;;;3.55;3.28;;;32.80;71.30;35.40;96962.00;;;;5029389;28;20197;-87
2023/09/17 13:22:22;;;;;;;3.17;2.83;;;32.60;69.10;34.80;96965.00;;;;5028399;28;20221;-87
2023/09/17 13:25:11;;;;;;;3.65;3.35;;;32.60;69.00;35.50;96961.00;;;;5028449;28;20225;-87
2023/09/17 13:28:13;;;;;;;3.13;2.92;;;32.60;69.60;36.70;96970.00;;;;5031146;28;20209;-86
2023/09/17 13:31:03;;;;;;;2.70;2.50;;;33.00;70.70;37.60;96969.00;;;;5024630;28;20207;-87
2023/09/17 13:33:52;;;;;;;3.50;3.30;;;33.60;68.30;38.00;96963.00;;;;5023418;28;20721;-88
2023/09/17 13:36:41;;;;;;;3.53;3.22;;;34.00;67.70;34.30;96963.00;;;;5020321;28;20210;-87
2023/09/17 13:39:32;;;;;;;3.38;3.10;;;33.70;65.70;34.30;96961.00;;;;5031011;28;20201;-87
2023/09/17 13:42:21;;;;;;;2.80;2.60;;;33.20;65.40;34.30;96956.00;;;;5018722;28;20229;-87
2023/09/17 13:45:12;;;;;;;4.10;3.10;;;33.10;66.10;33.70;96954.00;;;;5020849;28;20225;-86
2023/09/17 13:48:01;;;;;;;3.67;3.22;;;32.70;66.10;34.60;96953.00;;;;5019314;28;20696;-85
2023/09/17 13:50:50;;;;;;;3.60;3.20;;;32.60;67.50;35.80;96946.00;;;;5023390;28;20289;-86
2023/09/17 13:53:39;;;;;;;3.03;2.75;;;32.60;68.70;36.90;96962.00;;;;5011602;28;20209;-86
2023/09/17 13:56:29;;;;;;;3.35;3.05;;;32.90;67.80;37.20;96954.00;;;;5026196;28;20670;-86
2023/09/17 13:59:18;;;;;;;3.22;2.97;;;33.20;68.50;36.40;96943.00;;;;5020443;28;20197;-86